Time;durP1;ratioP1;P1;durP2;ratioP2;P2;SDS_P1;SDS_P2;PMS_P1;PMS_P2;Temp;Humidity;BMP_temperature;BMP_pressure;BME280_temperature;BME280_humidity;BME280_pressure;Samples;Min_cycle;Max_cycle;Signal;HPM_P1;HPM_P2
2022/03/12 00:00:31;;;;;;;6.73;3.00;;;15.40;64.60;;;;;;2021036;28;20174;-76
2022/03/12 00:01:29;;;;;;;5.73;3.70;;;15.40;64.60;;;;;;2020961;28;20180;-76
2022/03/12 00:02:30;;;;;;;3.67;2.87;;;15.50;64.80;;;;;;2020911;28;20163;-77
2022/03/12 00:03:30;;;;;;;9.18;2.60;;;15.50;64.90;;;;;;2020171;28;20179;-76
2022/03/12 00:04:30;;;;;;;3.55;2.75;;;15.40;64.70;;;;;;2012196;28;20210;-77
2022/03/12 00:05:30;;;;;;;5.90;3.65;;;15.40;64.70;;;;;;2020169;28;20179;-77
2022/03/12 00:06:29;;;;;;;5.78;3.25;;;15.50;64.60;;;;;;2020856;28;20175;-77
2022/03/12 00:07:27;;;;;;;4.73;3.00;;;15.40;64.50;;;;;;2020871;28;20302;-77
2022/03/12 00:08:44;;;;;;;6.10;3.40;;;15.40;64.40;;;;;;2020894;28;20167;-76
2022/03/12 00:09:43;;;;;;;4.03;3.20;;;15.40;64.50;;;;;;2020797;28;20244;-77
2022/03/12 00:10:43;;;;;;;5.90;3.80;;;15.40;64.50;;;;;;2021084;28;20179;-76
2022/03/12 00:11:51;;;;;;;6.65;3.30;;;15.30;64.00;;;;;;2020047;28;20437;-77
2022/03/12 00:12:50;;;;;;;4.70;3.25;;;15.30;63.70;;;;;;2020824;28;20603;-77
2022/03/12 00:13:50;;;;;;;4.73;3.13;;;15.30;64.00;;;;;;2028371;28;20260;-76
2022/03/12 00:14:49;;;;;;;4.03;2.67;;;15.30;64.80;;;;;;2020986;28;20398;-77
2022/03/12 00:15:51;;;;;;;5.30;2.95;;;15.30;64.50;;;;;;2020113;28;20182;-79
2022/03/12 00:16:50;;;;;;;6.00;2.97;;;15.30;64.50;;;;;;2020247;28;20673;-77
2022/03/12 00:17:50;;;;;;;5.20;3.00;;;15.40;64.60;;;;;;2020773;28;20198;-77
2022/03/12 00:18:53;;;;;;;5.00;3.45;;;15.40;64.80;;;;;;2020729;28;20175;-77
2022/03/12 00:19:51;;;;;;;6.03;3.30;;;15.40;64.80;;;;;;2020622;28;20267;-76
2022/03/12 00:20:51;;;;;;;8.50;3.47;;;15.30;64.60;;;;;;2012110;28;20188;-77
2022/03/12 00:21:50;;;;;;;4.78;3.10;;;15.30;64.70;;;;;;2012227;28;20223;-77
2022/03/12 00:22:51;;;;;;;7.03;3.15;;;15.30;64.70;;;;;;2020415;28;20196;-78
2022/03/12 00:23:53;;;;;;;3.83;2.78;;;15.40;64.80;;;;;;2020101;28;20183;-77
2022/03/12 00:24:54;;;;;;;4.68;2.83;;;15.40;64.90;;;;;;2012215;28;20191;-77
2022/03/12 00:25:52;;;;;;;5.18;3.22;;;15.30;64.60;;;;;;2020258;28;20195;-76
2022/03/12 00:26:51;;;;;;;6.43;3.60;;;15.40;64.60;;;;;;2019950;28;20198;-77
2022/03/12 00:27:51;;;;;;;6.53;3.50;;;15.30;64.60;;;;;;2012223;28;21009;-77
2022/03/12 00:28:53;;;;;;;4.50;3.03;;;15.30;64.70;;;;;;2020009;28;20182;-76
2022/03/12 00:29:52;;;;;;;6.53;3.17;;;15.30;64.90;;;;;;2020823;28;20642;-76
2022/03/12 00:30:52;;;;;;;3.90;2.80;;;15.30;64.50;;;;;;2020056;28;20183;-77
2022/03/12 00:31:53;;;;;;;3.88;3.05;;;15.30;64.40;;;;;;2019943;28;20210;-76
2022/03/12 00:32:53;;;;;;;5.22;3.25;;;15.40;64.70;;;;;;2020039;28;20202;-77
2022/03/12 00:33:52;;;;;;;5.32;3.53;;;15.30;64.40;;;;;;2020697;28;20215;-77
2022/03/12 00:34:50;;;;;;;6.50;3.50;;;15.40;64.40;;;;;;2020904;28;20706;-77
2022/03/12 00:35:51;;;;;;;5.27;3.40;;;15.30;64.50;;;;;;2020692;28;20200;-76
2022/03/12 00:36:50;;;;;;;4.00;2.58;;;15.30;64.30;;;;;;2020112;28;20702;-76
2022/03/12 00:37:48;;;;;;;4.50;2.83;;;15.30;64.40;;;;;;2020126;28;20535;-76
2022/03/12 00:38:49;;;;;;;5.03;3.07;;;15.30;64.30;;;;;;2020655;28;20593;-77
2022/03/12 00:39:48;;;;;;;4.90;3.17;;;15.30;64.00;;;;;;2020743;28;21070;-76
2022/03/12 00:40:47;;;;;;;6.73;3.50;;;15.30;63.60;;;;;;2020672;28;20262;-75
2022/03/12 00:41:48;;;;;;;5.32;3.25;;;15.30;64.50;;;;;;2020685;28;20418;-75
2022/03/12 00:42:46;;;;;;;5.85;3.55;;;15.30;64.40;;;;;;2020156;28;20565;-76
2022/03/12 00:43:45;;;;;;;4.60;3.10;;;15.30;64.40;;;;;;2019968;28;20256;-76
2022/03/12 00:44:43;;;;;;;4.43;2.90;;;15.20;64.40;;;;;;2020227;28;20202;-76
2022/03/12 00:45:44;;;;;;;6.33;3.30;;;15.30;64.30;;;;;;2019594;28;20191;-77
2022/03/12 00:46:46;;;;;;;6.15;3.50;;;15.30;64.20;;;;;;2020551;28;20230;-76
2022/03/12 00:47:49;;;;;;;12.80;3.20;;;15.30;64.50;;;;;;2020853;28;20259;-77
2022/03/12 00:48:49;;;;;;;5.03;3.13;;;15.30;64.40;;;;;;2020644;28;20254;-78
2022/03/12 00:49:50;;;;;;;4.13;2.63;;;15.30;64.20;;;;;;2020660;28;20183;-77
2022/03/12 00:50:49;;;;;;;4.22;3.28;;;15.30;64.40;;;;;;2019988;28;20187;-76
2022/03/12 00:51:48;;;;;;;4.40;3.00;;;15.30;64.00;;;;;;2020073;28;20190;-77
2022/03/12 00:52:46;;;;;;;4.70;3.55;;;15.30;64.40;;;;;;2020525;28;20441;-77
2022/03/12 00:53:46;;;;;;;5.23;3.80;;;15.20;64.50;;;;;;2019833;28;20671;-77
2022/03/12 00:54:45;;;;;;;4.53;3.22;;;15.30;64.60;;;;;;2020201;28;20535;-78
2022/03/12 00:55:44;;;;;;;5.20;3.33;;;15.20;64.50;;;;;;2020523;28;20183;-76
2022/03/12 00:56:42;;;;;;;7.10;3.70;;;15.30;64.40;;;;;;2019976;28;20586;-77
2022/03/12 00:57:41;;;;;;;4.50;3.20;;;15.30;64.60;;;;;;2028138;28;20260;-77
2022/03/12 00:58:45;;;;;;;5.57;3.37;;;15.30;64.30;;;;;;2027423;28;20201;-77
2022/03/12 00:59:44;;;;;;;6.28;3.58;;;15.20;64.00;;;;;;2020147;28;20213;-77
2022/03/12 01:00:44;;;;;;;3.95;2.90;;;15.20;64.40;;;;;;2019753;28;20199;-77
2022/03/12 01:01:43;;;;;;;5.03;3.22;;;15.30;64.80;;;;;;2019871;28;20595;-77
2022/03/12 01:02:41;;;;;;;5.67;3.53;;;15.20;64.70;;;;;;2020402;28;20188;-77
2022/03/12 01:03:40;;;;;;;5.50;3.53;;;15.20;64.70;;;;;;2020492;28;20642;-77
2022/03/12 01:04:39;;;;;;;4.28;3.20;;;15.20;64.70;;;;;;2020527;28;20167;-76
2022/03/12 01:05:49;;;;;;;9.60;3.90;;;15.30;64.90;;;;;;2019764;28;20186;-76
2022/03/12 01:06:48;;;;;;;5.03;3.47;;;15.20;64.70;;;;;;2019768;28;20422;-77
2022/03/12 01:07:46;;;;;;;6.43;3.60;;;15.20;64.80;;;;;;2020145;28;20179;-77
2022/03/12 01:08:47;;;;;;;3.27;2.87;;;15.20;64.60;;;;;;2027629;28;20401;-77
2022/03/12 01:09:45;;;;;;;4.30;2.83;;;15.20;64.80;;;;;;2021048;28;20168;-77
2022/03/12 01:10:46;;;;;;;5.93;3.03;;;15.20;64.90;;;;;;2020448;28;20601;-77
2022/03/12 01:11:45;;;;;;;5.05;3.30;;;15.20;64.90;;;;;;2020143;28;20518;-78
2022/03/12 01:12:44;;;;;;;5.23;3.67;;;15.20;64.80;;;;;;2019895;28;20242;-77
2022/03/12 01:13:42;;;;;;;4.90;3.40;;;15.20;64.80;;;;;;2019338;28;20230;-76
2022/03/12 01:14:41;;;;;;;4.23;2.83;;;15.20;64.90;;;;;;2012196;28;20180;-77
2022/03/12 01:15:41;;;;;;;4.95;3.63;;;15.30;65.10;;;;;;2019592;28;20168;-77
2022/03/12 01:16:39;;;;;;;7.65;3.88;;;15.20;64.90;;;;;;2020737;28;20492;-77
2022/03/12 01:17:41;;;;;;;4.30;2.90;;;15.20;64.70;;;;;;2020551;28;20172;-76
2022/03/12 01:18:40;;;;;;;4.22;3.30;;;15.20;64.80;;;;;;2020629;28;20529;-76
2022/03/12 01:19:38;;;;;;;4.10;3.03;;;15.20;64.90;;;;;;2020011;28;20623;-77
2022/03/12 01:20:37;;;;;;;3.43;2.77;;;15.20;65.00;;;;;;2020036;28;20562;-76
2022/03/12 01:21:39;;;;;;;8.00;3.30;;;15.20;65.20;;;;;;2035669;28;20254;-76
2022/03/12 01:22:38;;;;;;;7.05;3.70;;;15.10;65.00;;;;;;2035910;28;20192;-77
2022/03/12 01:23:38;;;;;;;5.28;3.20;;;15.20;65.00;;;;;;2020871;28;20210;-76
2022/03/12 01:24:37;;;;;;;5.57;3.80;;;15.20;64.80;;;;;;2020476;28;20176;-77
2022/03/12 01:25:35;;;;;;;5.43;3.73;;;15.20;64.80;;;;;;2020508;28;20175;-77
2022/03/12 01:26:35;;;;;;;4.77;3.20;;;15.20;64.90;;;;;;2020314;28;20184;-77
2022/03/12 01:27:34;;;;;;;4.13;3.00;;;15.20;64.70;;;;;;2020423;28;20233;-77
2022/03/12 01:28:33;;;;;;;6.00;3.90;;;15.20;65.00;;;;;;2020397;28;20228;-77
2022/03/12 01:29:32;;;;;;;4.60;3.20;;;15.20;64.80;;;;;;2020200;28;20402;-77
2022/03/12 01:30:31;;;;;;;4.10;3.43;;;15.20;64.70;;;;;;2020282;28;20207;-78
2022/03/12 01:31:29;;;;;;;3.92;3.10;;;15.20;64.60;;;;;;2020560;28;20171;-77
2022/03/12 01:32:28;;;;;;;4.27;3.07;;;15.20;64.60;;;;;;2021838;28;20180;-78
2022/03/12 01:33:27;;;;;;;3.97;3.13;;;15.20;64.70;;;;;;2021899;28;20237;-76
2022/03/12 01:34:25;;;;;;;4.70;3.10;;;15.20;65.00;;;;;;2022176;28;20171;-79
2022/03/12 01:35:24;;;;;;;4.33;2.67;;;15.10;64.80;;;;;;2022080;28;20226;-75
2022/03/12 01:36:23;;;;;;;4.85;3.05;;;15.20;65.00;;;;;;2022261;28;20164;-78
2022/03/12 01:37:21;;;;;;;4.50;3.00;;;15.20;65.00;;;;;;2022092;28;20624;-76
2022/03/12 01:38:32;;;;;;;4.57;3.50;;;15.20;65.00;;;;;;2021946;28;20258;-75
2022/03/12 01:39:32;;;;;;;6.70;3.75;;;15.20;64.80;;;;;;2022184;28;20163;-76
2022/03/12 01:40:30;;;;;;;3.60;2.83;;;15.10;64.80;;;;;;2021937;28;20184;-78
2022/03/12 01:41:32;;;;;;;6.40;3.90;;;15.10;65.00;;;;;;2022008;28;20262;-77
2022/03/12 01:42:31;;;;;;;4.43;3.10;;;15.10;65.00;;;;;;2021146;28;20300;-77
2022/03/12 01:43:31;;;;;;;6.57;4.10;;;15.10;65.00;;;;;;2021297;28;20195;-78
2022/03/12 01:44:32;;;;;;;5.03;2.95;;;15.10;65.30;;;;;;2021022;28;20509;-76
2022/03/12 01:45:32;;;;;;;5.05;3.50;;;15.10;65.50;;;;;;2021411;28;20191;-77
2022/03/12 01:46:59;;;;;;;5.53;3.28;;;15.10;65.70;;;;;;2021284;28;20210;-76
2022/03/12 01:48:03;;;;;;;4.95;3.47;;;15.10;65.50;;;;;;2014935;28;20194;-78
2022/03/12 01:49:19;;;;;;;7.03;3.65;;;15.10;65.60;;;;;;2021659;28;20164;-76
2022/03/12 01:50:21;;;;;;;5.20;3.25;;;15.10;65.40;;;;;;2022129;28;20179;-76
2022/03/12 01:51:19;;;;;;;6.20;3.70;;;15.10;65.60;;;;;;2022101;28;20168;-76
2022/03/12 01:52:18;;;;;;;5.10;3.10;;;15.10;65.80;;;;;;2022083;28;20530;-77
2022/03/12 01:53:26;;;;;;;4.10;2.90;;;15.10;65.90;;;;;;2021816;28;20188;-77
2022/03/12 01:54:27;;;;;;;4.95;3.35;;;15.20;65.90;;;;;;2022267;28;20198;-78
2022/03/12 01:55:31;;;;;;;5.18;3.60;;;15.10;65.70;;;;;;2021950;28;20180;-77
2022/03/12 01:56:30;;;;;;;5.28;3.17;;;15.10;65.50;;;;;;2021452;28;20160;-77
2022/03/12 01:57:29;;;;;;;3.83;3.13;;;15.10;65.80;;;;;;2021599;28;20164;-76
2022/03/12 01:58:28;;;;;;;5.73;4.00;;;15.10;66.10;;;;;;2022055;28;20516;-76
2022/03/12 01:59:27;;;;;;;4.03;2.97;;;15.10;66.30;;;;;;2021971;28;20406;-79
2022/03/12 02:00:43;;;;;;;4.50;3.13;;;15.10;66.40;;;;;;2022143;28;20163;-76
2022/03/12 02:01:58;;;;;;;8.40;3.40;;;15.10;66.30;;;;;;2021519;28;20199;-76
2022/03/12 02:03:00;;;;;;;4.47;3.23;;;14.90;66.30;;;;;;2021939;28;20192;-77
2022/03/12 02:04:00;;;;;;;6.80;3.10;;;15.10;66.40;;;;;;2021280;28;20176;-76
2022/03/12 02:05:01;;;;;;;5.20;3.30;;;15.10;66.90;;;;;;2021425;28;20179;-76
2022/03/12 02:05:59;;;;;;;4.93;3.33;;;15.10;67.00;;;;;;2021237;28;20191;-76
2022/03/12 02:06:59;;;;;;;5.37;3.43;;;15.10;67.40;;;;;;2021285;28;20171;-77
2022/03/12 02:07:58;;;;;;;7.03;3.30;;;15.10;67.90;;;;;;2021894;28;20259;-77
2022/03/12 02:08:58;;;;;;;6.63;3.90;;;15.00;68.80;;;;;;2022081;28;20178;-78
2022/03/12 02:09:59;;;;;;;3.95;2.70;;;15.00;62.90;;;;;;2022192;28;20401;-76
2022/03/12 02:10:59;;;;;;;5.82;3.60;;;15.10;62.90;;;;;;2022322;28;20172;-76
2022/03/12 02:11:58;;;;;;;3.97;3.17;;;15.10;63.60;;;;;;2021984;28;20182;-76
2022/03/12 02:12:57;;;;;;;3.88;3.13;;;15.00;64.00;;;;;;2021985;28;20202;-76
2022/03/12 02:14:09;;;;;;;3.70;3.10;;;15.10;63.90;;;;;;2021227;28;20214;-76
2022/03/12 02:15:08;;;;;;;4.68;3.50;;;15.10;63.90;;;;;;2014591;28;20169;-76
2022/03/12 02:16:08;;;;;;;3.97;3.00;;;15.10;64.20;;;;;;2013894;28;20212;-76
2022/03/12 02:17:11;;;;;;;5.25;3.15;;;15.00;64.00;;;;;;2021651;28;20884;-76
2022/03/12 02:18:13;;;;;;;5.85;3.17;;;15.10;64.10;;;;;;2022200;28;20164;-76
2022/03/12 02:19:12;;;;;;;4.15;3.50;;;15.00;63.80;;;;;;2022359;28;20176;-77
2022/03/12 02:20:10;;;;;;;4.10;3.17;;;15.00;63.70;;;;;;2021627;28;20184;-76
2022/03/12 02:21:09;;;;;;;5.10;3.20;;;15.00;64.00;;;;;;2029615;28;20177;-77
2022/03/12 02:22:13;;;;;;;4.00;3.47;;;15.00;64.40;;;;;;2029118;28;20179;-77
2022/03/12 02:23:12;;;;;;;6.00;3.65;;;15.00;64.60;;;;;;2029471;28;20437;-75
2022/03/12 02:24:12;;;;;;;4.97;3.53;;;15.00;64.80;;;;;;2037932;28;20174;-76
2022/03/12 02:25:12;;;;;;;4.20;3.05;;;15.00;66.50;;;;;;2022845;28;20167;-77
2022/03/12 02:26:11;;;;;;;4.47;3.40;;;15.00;64.90;;;;;;2021450;28;20180;-76
2022/03/12 02:27:10;;;;;;;5.63;3.80;;;15.00;65.50;;;;;;2013236;28;20208;-76
2022/03/12 02:28:18;;;;;;;4.03;2.90;;;15.00;66.40;;;;;;2021032;28;20180;-75
2022/03/12 02:29:20;;;;;;;5.25;3.05;;;15.00;67.40;;;;;;2021438;28;20246;-76
2022/03/12 02:30:20;;;;;;;6.35;3.30;;;15.00;67.60;;;;;;2013246;28;20670;-76
2022/03/12 02:31:21;;;;;;;4.95;3.10;;;15.00;66.20;;;;;;2021645;28;20196;-76
2022/03/12 02:32:19;;;;;;;5.00;3.20;;;15.00;63.30;;;;;;2029703;28;20306;-76
2022/03/12 02:33:24;;;;;;;5.23;3.87;;;15.00;61.20;;;;;;2021211;28;20615;-76
2022/03/12 02:34:36;;;;;;;4.95;3.47;;;15.00;61.20;;;;;;2021287;28;20170;-76
2022/03/12 02:35:35;;;;;;;5.30;3.42;;;15.00;61.30;;;;;;2022219;28;20619;-77
2022/03/12 02:36:34;;;;;;;4.80;3.20;;;15.00;60.90;;;;;;2022479;28;20222;-76
2022/03/12 02:37:33;;;;;;;4.88;3.33;;;14.90;61.10;;;;;;2022208;28;20301;-75
2022/03/12 02:38:31;;;;;;;4.93;3.20;;;15.00;61.50;;;;;;2022587;28;20218;-77
2022/03/12 02:39:30;;;;;;;6.07;3.60;;;15.00;61.60;;;;;;2021835;28;20180;-75
2022/03/12 02:40:29;;;;;;;4.23;3.33;;;15.00;61.90;;;;;;2021731;28;20172;-76
2022/03/12 02:41:27;;;;;;;5.03;3.40;;;15.00;61.60;;;;;;2022255;28;20266;-76
2022/03/12 02:42:27;;;;;;;4.23;3.40;;;15.00;61.60;;;;;;2022292;28;20175;-76
2022/03/12 02:43:26;;;;;;;5.05;2.90;;;15.00;61.60;;;;;;2021393;28;20194;-76
2022/03/12 02:44:26;;;;;;;6.43;3.20;;;15.00;61.20;;;;;;2023007;28;20225;-75
2022/03/12 02:45:28;;;;;;;5.32;3.42;;;15.00;61.50;;;;;;2023326;28;20171;-74
2022/03/12 02:46:29;;;;;;;5.60;3.50;;;15.00;61.40;;;;;;2022419;28;20272;-76
2022/03/12 02:47:33;;;;;;;6.22;3.83;;;15.00;61.30;;;;;;2022519;28;20172;-75
2022/03/12 02:48:32;;;;;;;5.47;3.40;;;15.00;61.20;;;;;;2023293;28;20546;-77
2022/03/12 02:49:37;;;;;;;7.88;3.88;;;15.00;61.10;;;;;;2023115;28;20183;-76
2022/03/12 02:50:37;;;;;;;7.82;4.40;;;15.00;60.90;;;;;;2023721;28;20160;-75
2022/03/12 02:51:35;;;;;;;5.88;3.50;;;15.00;60.70;;;;;;2023622;28;20271;-75
2022/03/12 02:52:40;;;;;;;7.53;3.67;;;15.00;60.70;;;;;;2023657;28;20283;-75
2022/03/12 02:53:38;;;;;;;5.70;3.63;;;15.00;60.90;;;;;;2023091;28;20235;-75
2022/03/12 02:54:37;;;;;;;7.80;4.20;;;15.00;60.80;;;;;;2022474;28;20179;-77
2022/03/12 02:55:41;;;;;;;6.17;3.50;;;15.00;60.80;;;;;;2021552;28;20532;-76
2022/03/12 02:56:40;;;;;;;3.10;2.80;;;15.00;60.70;;;;;;2020858;28;20207;-77
2022/03/12 02:57:42;;;;;;;12.03;4.60;;;15.00;60.60;;;;;;2020933;28;20172;-76
2022/03/12 02:58:41;;;;;;;5.85;3.50;;;15.00;60.70;;;;;;2021311;28;20167;-76
2022/03/12 02:59:43;;;;;;;5.80;3.60;;;15.00;60.90;;;;;;2021430;28;20222;-76
2022/03/12 03:00:41;;;;;;;6.10;3.25;;;15.00;61.00;;;;;;2020769;28;20183;-77
2022/03/12 03:01:40;;;;;;;4.47;2.70;;;14.90;60.60;;;;;;2020886;28;20203;-76
2022/03/12 03:02:51;;;;;;;5.40;3.50;;;15.00;60.80;;;;;;2021420;28;20164;-76
2022/03/12 03:03:50;;;;;;;5.35;3.55;;;14.90;60.90;;;;;;2021409;28;20387;-76
2022/03/12 03:04:49;;;;;;;3.77;3.30;;;14.90;60.80;;;;;;2021211;28;20211;-77
2022/03/12 03:05:48;;;;;;;4.47;3.03;;;14.90;60.90;;;;;;2021261;28;20172;-77
2022/03/12 03:06:47;;;;;;;5.00;3.42;;;14.90;61.00;;;;;;2021346;28;20172;-77
2022/03/12 03:07:46;;;;;;;6.97;4.30;;;14.90;60.80;;;;;;2021537;28;20182;-77
2022/03/12 03:08:45;;;;;;;6.60;4.15;;;14.90;61.10;;;;;;2021454;28;20183;-77
2022/03/12 03:09:46;;;;;;;6.37;3.47;;;15.00;61.20;;;;;;2021309;28;20178;-78
2022/03/12 03:10:46;;;;;;;5.68;3.05;;;14.90;60.80;;;;;;2020806;28;20426;-75
2022/03/12 03:11:46;;;;;;;5.63;3.72;;;14.90;61.10;;;;;;2020779;28;20180;-76
2022/03/12 03:12:45;;;;;;;4.93;3.45;;;14.90;60.80;;;;;;2021300;28;20230;-77
2022/03/12 03:13:44;;;;;;;4.93;3.13;;;14.90;61.30;;;;;;2021304;28;20203;-77
2022/03/12 03:14:48;;;;;;;6.53;3.20;;;14.90;61.70;;;;;;2021308;28;20631;-77
2022/03/12 03:15:54;;;;;;;5.05;3.28;;;14.90;61.90;;;;;;2021741;28;20160;-77
2022/03/12 03:16:59;;;;;;;4.85;3.63;;;14.90;61.80;;;;;;2021324;28;20224;-76
2022/03/12 03:17:58;;;;;;;4.35;3.00;;;14.90;62.30;;;;;;2020757;28;20176;-76
2022/03/12 03:18:57;;;;;;;4.85;3.17;;;14.80;62.50;;;;;;2020742;28;20168;-77
2022/03/12 03:19:56;;;;;;;4.33;2.80;;;14.90;63.60;;;;;;2021491;28;20627;-77
2022/03/12 03:20:55;;;;;;;3.97;3.53;;;14.90;68.00;;;;;;2021350;28;20764;-77
2022/03/12 03:21:55;;;;;;;3.95;3.25;;;14.90;69.30;;;;;;2021436;28;20266;-78
2022/03/12 03:22:55;;;;;;;5.65;3.97;;;14.90;66.70;;;;;;2021087;28;20203;-77
2022/03/12 03:23:54;;;;;;;6.10;3.28;;;14.90;67.00;;;;;;2021335;28;20186;-77
2022/03/12 03:24:52;;;;;;;4.82;3.35;;;14.90;68.60;;;;;;2021226;28;20203;-77
2022/03/12 03:25:52;;;;;;;5.00;3.13;;;14.80;69.80;;;;;;2021138;28;20273;-77
2022/03/12 03:26:53;;;;;;;7.07;4.18;;;14.80;71.40;;;;;;2021345;28;20234;-76
2022/03/12 03:27:51;;;;;;;5.82;3.53;;;14.90;67.10;;;;;;2020588;28;20681;-78
2022/03/12 03:28:51;;;;;;;6.00;3.40;;;14.80;67.30;;;;;;2020760;28;20194;-77
2022/03/12 03:29:50;;;;;;;5.25;3.70;;;;;;;;;;2021205;28;20179;-77
2022/03/12 03:30:49;;;;;;;7.33;3.60;;;;;;;;;;2021267;28;20650;-76
2022/03/12 03:31:48;;;;;;;5.43;3.17;;;14.90;66.40;;;;;;2021052;28;20504;-76
2022/03/12 03:32:47;;;;;;;7.45;3.33;;;14.90;57.70;;;;;;2021291;28;20505;-75
2022/03/12 03:33:45;;;;;;;5.20;3.10;;;14.90;58.40;;;;;;2021155;28;20666;-75
2022/03/12 03:34:44;;;;;;;5.70;3.40;;;14.90;58.50;;;;;;2021029;28;20175;-78
2022/03/12 03:35:42;;;;;;;4.90;3.60;;;14.80;58.20;;;;;;2021090;28;20199;-76
2022/03/12 03:36:41;;;;;;;5.37;3.40;;;14.90;58.40;;;;;;2020994;28;20175;-77
2022/03/12 03:37:40;;;;;;;3.90;3.13;;;14.90;58.50;;;;;;2020598;28;20176;-77
2022/03/12 03:38:38;;;;;;;5.40;3.70;;;14.90;58.40;;;;;;2020599;28;20206;-77
2022/03/12 03:39:41;;;;;;;3.33;2.80;;;14.90;58.20;;;;;;2020019;28;20167;-78
2022/03/12 03:40:41;;;;;;;5.10;3.38;;;14.80;58.20;;;;;;2020375;28;20171;-77
2022/03/12 03:41:39;;;;;;;9.68;3.50;;;14.80;58.40;;;;;;2020321;28;20176;-76
2022/03/12 03:42:38;;;;;;;6.90;3.90;;;14.90;59.10;;;;;;2021099;28;20175;-77
2022/03/12 03:43:36;;;;;;;4.43;3.20;;;14.90;58.40;;;;;;2021100;28;20199;-75
2022/03/12 03:44:36;;;;;;;5.27;3.60;;;14.80;58.40;;;;;;2021042;28;20543;-76
2022/03/12 03:45:36;;;;;;;6.07;3.20;;;14.80;58.50;;;;;;2021224;28;20693;-76
2022/03/12 03:46:35;;;;;;;6.35;3.60;;;14.80;58.40;;;;;;2021174;28;20198;-77
2022/03/12 03:47:34;;;;;;;5.47;3.80;;;14.80;58.50;;;;;;2021076;28;20176;-76
2022/03/12 03:48:40;;;;;;;8.23;3.23;;;15.00;58.70;;;;;;2021143;28;20455;-77
2022/03/12 03:49:39;;;;;;;7.65;4.22;;;14.80;58.30;;;;;;2021114;28;20168;-77
2022/03/12 03:50:38;;;;;;;4.57;3.50;;;14.90;58.50;;;;;;2020816;28;20597;-77
2022/03/12 03:51:40;;;;;;;4.68;3.75;;;14.80;58.50;;;;;;2021009;28;20178;-77
2022/03/12 03:52:39;;;;;;;6.78;3.50;;;14.90;58.70;;;;;;2020912;28;20171;-77
2022/03/12 03:53:37;;;;;;;8.90;3.80;;;14.80;58.70;;;;;;2020786;28;20207;-77
2022/03/12 03:54:36;;;;;;;5.57;3.40;;;14.80;58.80;;;;;;2020666;28;20171;-77
2022/03/12 03:55:34;;;;;;;5.47;4.00;;;14.90;58.80;;;;;;2021075;28;20274;-77
2022/03/12 03:56:34;;;;;;;4.50;3.37;;;14.80;58.80;;;;;;2020425;28;20175;-76
2022/03/12 03:57:32;;;;;;;4.50;3.10;;;14.90;58.70;;;;;;2020390;28;20164;-76
2022/03/12 03:58:32;;;;;;;4.10;3.20;;;14.90;59.00;;;;;;2020925;28;20168;-78
2022/03/12 03:59:31;;;;;;;6.35;3.90;;;14.90;59.00;;;;;;2020423;28;20635;-77
2022/03/12 04:00:32;;;;;;;5.93;3.70;;;14.80;58.80;;;;;;2020478;28;20318;-77
2022/03/12 04:01:31;;;;;;;5.47;3.47;;;14.80;59.00;;;;;;2021229;28;20189;-77
2022/03/12 04:02:30;;;;;;;5.27;3.37;;;14.80;58.80;;;;;;2020887;28;20175;-76
2022/03/12 04:03:37;;;;;;;4.93;3.00;;;14.80;58.90;;;;;;2020937;28;20493;-77
2022/03/12 04:04:37;;;;;;;6.43;3.88;;;14.80;59.10;;;;;;2021098;28;20159;-77
2022/03/12 04:05:37;;;;;;;5.63;3.38;;;14.80;59.10;;;;;;2020948;28;20168;-76
2022/03/12 04:06:38;;;;;;;4.28;3.00;;;14.80;59.20;;;;;;2020882;28;20255;-76
2022/03/12 04:07:36;;;;;;;6.60;3.97;;;14.80;59.40;;;;;;2020185;28;20178;-76
2022/03/12 04:08:35;;;;;;;7.03;4.10;;;14.80;59.30;;;;;;2020280;28;20251;-77
2022/03/12 04:09:35;;;;;;;5.33;3.13;;;14.80;59.60;;;;;;2020924;28;20191;-77
2022/03/12 04:10:37;;;;;;;3.95;3.10;;;14.70;59.70;;;;;;2020941;28;20172;-77
2022/03/12 04:11:35;;;;;;;5.45;3.17;;;14.80;60.30;;;;;;2020901;28;20662;-78
2022/03/12 04:12:34;;;;;;;5.67;3.33;;;14.80;60.80;;;;;;2020835;28;20175;-76
2022/03/12 04:13:33;;;;;;;7.63;3.23;;;14.80;63.80;;;;;;2020736;28;20622;-77
2022/03/12 04:14:32;;;;;;;5.75;2.80;;;14.80;61.80;;;;;;2020846;28;20200;-77
2022/03/12 04:15:31;;;;;;;5.23;3.30;;;14.80;61.70;;;;;;2020742;28;20522;-77
2022/03/12 04:16:31;;;;;;;5.78;3.45;;;14.80;61.60;;;;;;2020792;28;20247;-77
2022/03/12 04:17:32;;;;;;;6.95;3.88;;;14.80;61.60;;;;;;2020865;28;20175;-77
2022/03/12 04:18:31;;;;;;;5.00;3.20;;;14.80;62.00;;;;;;2020758;28;20242;-76
2022/03/12 04:19:33;;;;;;;4.38;2.95;;;14.80;61.80;;;;;;2020061;28;20168;-76
2022/03/12 04:20:31;;;;;;;4.63;3.35;;;14.80;61.70;;;;;;2020136;28;20168;-77
2022/03/12 04:21:30;;;;;;;5.37;3.37;;;14.80;62.10;;;;;;2020914;28;20202;-77
2022/03/12 04:22:29;;;;;;;5.60;3.80;;;14.80;62.10;;;;;;2020896;28;20164;-77
2022/03/12 04:23:27;;;;;;;7.00;3.50;;;14.80;61.60;;;;;;2020860;28;20179;-76
2022/03/12 04:24:27;;;;;;;4.73;3.27;;;14.80;61.70;;;;;;2020813;28;20537;-77
2022/03/12 04:25:25;;;;;;;5.30;3.90;;;14.70;61.70;;;;;;2020853;28;20413;-76
2022/03/12 04:26:24;;;;;;;3.70;3.03;;;14.80;61.80;;;;;;2020741;28;20259;-76
2022/03/12 04:27:22;;;;;;;5.30;2.97;;;14.80;61.70;;;;;;2020806;28;20167;-77
2022/03/12 04:28:23;;;;;;;5.27;3.60;;;14.70;61.20;;;;;;2020608;28;20172;-77
2022/03/12 04:29:23;;;;;;;4.82;3.40;;;14.80;61.70;;;;;;2020601;28;20225;-79
2022/03/12 04:30:22;;;;;;;5.43;3.33;;;14.70;61.10;;;;;;2020870;28;20183;-77
2022/03/12 04:31:21;;;;;;;5.60;3.90;;;14.80;60.90;;;;;;2020617;28;20536;-76
2022/03/12 04:32:19;;;;;;;5.72;3.70;;;14.80;60.40;;;;;;2020843;28;20234;-77
2022/03/12 04:33:22;;;;;;;4.67;3.50;;;14.80;60.30;;;;;;2019858;28;20596;-76
2022/03/12 04:34:21;;;;;;;4.72;3.45;;;14.70;60.20;;;;;;2020056;28;20179;-76
2022/03/12 04:35:22;;;;;;;5.83;3.40;;;14.80;60.40;;;;;;2020607;28;20207;-77
2022/03/12 04:36:22;;;;;;;6.10;3.53;;;14.70;60.40;;;;;;2020587;28;20399;-76
2022/03/12 04:37:20;;;;;;;7.10;3.72;;;14.80;60.70;;;;;;2020716;28;20183;-77
2022/03/12 04:38:20;;;;;;;5.43;3.67;;;14.80;60.50;;;;;;2020603;28;20175;-77
2022/03/12 04:39:19;;;;;;;8.57;3.90;;;14.70;60.40;;;;;;2020668;28;20179;-77
2022/03/12 04:40:22;;;;;;;6.07;3.53;;;14.70;61.20;;;;;;2020743;28;20180;-75
2022/03/12 04:41:21;;;;;;;5.10;3.38;;;14.70;60.50;;;;;;2020103;28;20239;-77
2022/03/12 04:42:21;;;;;;;5.70;3.77;;;14.70;60.30;;;;;;2020121;28;20180;-77
2022/03/12 04:43:20;;;;;;;6.03;3.22;;;14.70;60.20;;;;;;2020577;28;20183;-77
2022/03/12 04:44:20;;;;;;;6.73;3.60;;;14.70;60.10;;;;;;2020031;28;20536;-78
2022/03/12 04:45:25;;;;;;;8.52;4.20;;;14.70;60.10;;;;;;2020237;28;20183;-78
2022/03/12 04:46:25;;;;;;;4.03;2.97;;;14.80;60.30;;;;;;2020613;28;20702;-77
2022/03/12 04:47:24;;;;;;;5.70;3.50;;;14.70;60.30;;;;;;2020684;28;20258;-77
2022/03/12 04:48:23;;;;;;;4.05;3.00;;;14.70;60.30;;;;;;2020805;28;20164;-77
2022/03/12 04:49:21;;;;;;;4.20;3.30;;;14.70;60.30;;;;;;2020817;28;20176;-77
2022/03/12 04:50:21;;;;;;;5.10;3.80;;;14.70;60.10;;;;;;2020787;28;20406;-77
2022/03/12 04:51:20;;;;;;;3.85;3.25;;;14.70;60.30;;;;;;2020748;28;20511;-77
2022/03/12 04:52:19;;;;;;;4.37;3.10;;;14.80;60.20;;;;;;2020595;28;20226;-78
2022/03/12 04:53:18;;;;;;;7.20;4.20;;;14.70;60.30;;;;;;2020507;28;20217;-77
2022/03/12 04:54:18;;;;;;;4.88;3.50;;;14.70;60.30;;;;;;2020656;28;20259;-76
2022/03/12 04:55:20;;;;;;;4.85;3.28;;;14.70;60.10;;;;;;2020091;28;20213;-78
2022/03/12 04:56:22;;;;;;;11.85;3.72;;;14.70;60.40;;;;;;2019909;28;20218;-78
2022/03/12 04:57:21;;;;;;;4.10;3.50;;;14.70;60.70;;;;;;2020616;28;20560;-76
2022/03/12 04:58:19;;;;;;;5.00;3.30;;;14.60;60.40;;;;;;2020554;28;20230;-76
2022/03/12 04:59:18;;;;;;;4.50;3.37;;;14.70;60.60;;;;;;2020590;28;20179;-76
2022/03/12 05:00:24;;;;;;;5.23;3.67;;;14.70;60.60;;;;;;2020577;28;20264;-77
2022/03/12 05:01:24;;;;;;;4.90;3.47;;;14.70;60.70;;;;;;2020739;28;20387;-77
2022/03/12 05:02:22;;;;;;;6.57;4.30;;;14.60;60.10;;;;;;2020579;28;20245;-78
2022/03/12 05:03:23;;;;;;;5.17;2.77;;;14.60;60.20;;;;;;2019987;28;20317;-77
2022/03/12 05:04:21;;;;;;;4.85;3.03;;;14.60;60.30;;;;;;2028105;28;20527;-76
2022/03/12 05:05:20;;;;;;;6.17;3.60;;;14.60;60.40;;;;;;2035603;28;20174;-77
2022/03/12 05:06:19;;;;;;;4.28;3.13;;;14.60;60.50;;;;;;2020562;28;20194;-75
2022/03/12 05:07:18;;;;;;;4.65;3.30;;;14.60;60.10;;;;;;2020639;28;20175;-78
2022/03/12 05:08:20;;;;;;;3.97;3.07;;;14.70;60.30;;;;;;2020431;28;20163;-77
2022/03/12 05:09:19;;;;;;;6.95;3.38;;;14.60;60.40;;;;;;2020445;28;20258;-78
2022/03/12 05:10:25;;;;;;;6.20;3.78;;;14.60;60.30;;;;;;2020471;28;20225;-77
2022/03/12 05:11:25;;;;;;;4.07;3.20;;;14.60;60.60;;;;;;2020545;28;20194;-77
2022/03/12 05:12:24;;;;;;;8.27;3.38;;;14.60;60.80;;;;;;2020463;28;20183;-76
2022/03/12 05:13:24;;;;;;;5.80;2.97;;;14.60;60.90;;;;;;2020394;28;20167;-76
2022/03/12 05:14:22;;;;;;;5.43;3.78;;;14.70;61.10;;;;;;2019728;28;20556;-77